This is the latest recevied weather packets stored in our database for station/object KG7QQL. If no packets are shown the sender has not sent any weather packets the latest 10 day(s).
| Time | Temp. | Humidity | Pressure | Rain* | Wind** | Luminosity | Snow |
|---|---|---|---|---|---|---|---|
| 1777612684 | 15.56° C | 72% | - | 0 mm | - | - | - |
| 1777612380 | 15.56° C | 72% | - | 0 mm | - | - | - |
| 1777612074 | 16.11° C | 71% | - | 0 mm | - | - | - |
| 1777611770 | 16.11° C | 71% | - | 0 mm | - | - | - |
| 1777611467 | 16.11° C | 71% | - | 0 mm | - | - | - |
| 1777611164 | 15.56° C | 74% | - | 0 mm | - | - | - |
| 1777610864 | 15.56° C | 75% | - | 0 mm | - | - | - |
| 1777610560 | 15.56° C | 74% | - | 0 mm | - | - | - |
| 1777610254 | 16.11° C | 72% | - | 0 mm | - | - | - |
| 1777609952 | 16.67° C | 69% | - | 0 mm | - | - | - |
| 1777609648 | 17.22° C | 66% | - | 0 mm | - | - | - |
| 1777609346 | 17.78° C | 64% | - | 0 mm | - | - | - |
| 1777609043 | 17.22° C | 64% | - | 0 mm | - | - | - |
| 1777608740 | 17.22° C | 64% | - | 0 mm | - | - | - |
| 1777608436 | 17.22° C | 64% | - | 0 mm | - | - | - |
| 1777608135 | 17.22° C | 65% | - | 0 mm | - | - | - |
| 1777607831 | 17.22° C | 65% | - | 0 mm | - | - | - |
| 1777607527 | 17.22° C | 67% | - | 0 mm | - | - | - |
| 1777607223 | 17.22° C | 66% | - | 0 mm | - | - | - |
| 1777606920 | 17.22° C | 66% | - | 0 mm | - | - | - |
| 1777606615 | 17.22° C | 64% | - | 0 mm | - | - | - |
| 1777606311 | 17.22° C | 67% | - | 0 mm | - | - | - |
| 1777606006 | 17.22° C | 67% | - | 0 mm | - | - | - |
| 1777605703 | 17.22° C | 66% | - | 0 mm | - | - | - |
| 1777605402 | 17.22° C | 65% | - | 0 mm | - | - | - |
* Rain latest hour (hover to see other rain measurements)
** Current wind speed in m/s (hover to see current wind gust speed)